Cunnamulla Airport


Codes: YCMU/CMA
Name: Cunnamulla Airport
City:
Country: Australia
Elevation: 630 ft.
Wikipedia:

Photos at Cunnamulla Airport


   Photos courtesy of SpottingLog. You can add your own sightings and photos by signing up for a free trial today.



No photos found.

Weather at Cunnamulla Airport


Time (UTC)DescriptionTempratureWindCloud coverageVisibilityPressureHumidity
17-Jun-2024 06:00Clear Sky15°C11 mph, 0%10000m1019hPa26%
17-Jun-2024 09:00Clear Sky14°C9 mph, SW0%10000m1020hPa30%
17-Jun-2024 12:00Clear Sky11°C9 mph, S0%10000m1021hPa40%
17-Jun-2024 15:00Clear Sky8°C7 mph, S0%10000m1021hPa53%
17-Jun-2024 18:00Clear Sky7°C7 mph, S1%10000m1021hPa58%
17-Jun-2024 21:00Scattered Clouds6°C4 mph, S35%10000m1022hPa61%
18-Jun-2024 00:00Scattered Clouds12°C7 mph, S27%10000m1022hPa44%
18-Jun-2024 03:00Few Clouds15°C4 mph, SW15%10000m1019hPa28%
18-Jun-2024 06:00Scattered Clouds16°C7 mph, W47%10000m1017hPa24%
18-Jun-2024 09:00Overcast Clouds13°C0 mph, W98%10000m1018hPa35%
18-Jun-2024 12:00Overcast Clouds14°C4 mph, SW91%10000m1019hPa29%
18-Jun-2024 15:00Overcast Clouds14°C2 mph, SW99%10000m1019hPa30%
18-Jun-2024 18:00Overcast Clouds14°C2 mph, NE97%10000m1017hPa31%
18-Jun-2024 21:00Overcast Clouds13°C2 mph, NE95%10000m1018hPa33%
19-Jun-2024 00:00Broken Clouds16°C7 mph, N79%10000m1019hPa27%
19-Jun-2024 03:00Broken Clouds20°C11 mph, NW67%10000m1016hPa23%
19-Jun-2024 06:00Broken Clouds20°C11 mph, NW81%10000m1014hPa26%
19-Jun-2024 09:00Broken Clouds17°C4 mph, NW73%10000m1015hPa33%
19-Jun-2024 12:00Overcast Clouds17°C11 mph, NW86%10000m1016hPa37%
19-Jun-2024 15:00Overcast Clouds16°C9 mph, NW97%10000m1015hPa64%
19-Jun-2024 18:00Overcast Clouds15°C13 mph, W98%10000m1016hPa71%
19-Jun-2024 21:00Broken Clouds12°C11 mph, W77%10000m1017hPa79%
20-Jun-2024 00:00Scattered Clouds16°C18 mph, SW42%10000m1018hPa51%
20-Jun-2024 03:00Clear Sky19°C18 mph, W1%10000m1017hPa38%
20-Jun-2024 06:00Clear Sky19°C20 mph, W1%10000m1016hPa36%
20-Jun-2024 09:00Clear Sky14°C11 mph, SW2%10000m1018hPa37%
20-Jun-2024 12:00Scattered Clouds11°C9 mph, SW37%10000m1020hPa46%
20-Jun-2024 15:00Overcast Clouds10°C9 mph, SW94%10000m1021hPa53%
20-Jun-2024 18:00Broken Clouds9°C7 mph, W69%10000m1021hPa57%
20-Jun-2024 21:00Few Clouds8°C9 mph, W11%10000m1023hPa64%
21-Jun-2024 00:00Clear Sky13°C9 mph, SW7%10000m1024hPa45%
21-Jun-2024 03:00Clear Sky16°C11 mph, SW0%10000m1022hPa32%
21-Jun-2024 06:00Clear Sky16°C11 mph, SW1%10000m1022hPa34%
21-Jun-2024 09:00Clear Sky12°C9 mph, SW1%10000m1024hPa50%
21-Jun-2024 12:00Clear Sky11°C9 mph, SW2%10000m1025hPa59%
21-Jun-2024 15:00Clear Sky10°C9 mph, S3%10000m1026hPa64%
21-Jun-2024 18:00Clear Sky8°C9 mph, S2%10000m1026hPa67%
21-Jun-2024 21:00Clear Sky8°C9 mph, S0%10000m1028hPa70%
22-Jun-2024 00:00Clear Sky13°C11 mph, SE0%10000m1028hPa46%
22-Jun-2024 03:00Clear Sky16°C11 mph, SE0%10000m1026hPa38%